Terminal Aerodrome Forecast
Issued by NWS Caribou, ME

Home | Current Version | Previous Version | Text Only | Print | Product List | Glossary On
Versions: 1 2 3 4 5 6 7 8 9 10 11 12 13 14 15 16 17 18 19
000
FTUS41 KCAR 251730
TAFCAR
TAF
KCAR 251730Z 2518/2618 24012G20KT P6SM VCSH SCT015 BKN028
     FM252000 26020G32KT P6SM BKN035
     FM260500 27013G22KT P6SM SCT035=

USA.gov is the U.S. government's official web portal to all federal, state and local government web resources and services.